weather.gov     
National Weather Service

Terminal Aerodrome Forecast
NWS Homepage
This page is being discontinued on March 12, 2014.
The same data is available at this site. Please update your bookmarks.
Thank you, and we apologize for the inconvenience.
Please send an email to SR-SRH.Webmaster@noaa.gov with any concerns.


Current Version
Previous Version:    01  02  03  04  05  06  07  08  09  10  11  12  13  14  15  16  17  18  19  20  21  22  23  24  25  26  27  28  29  30  
   31  32  33  34  35  36  37  38  39  40  41  42  43  
[Printable]
420
FTUS43 KOAX 011353 AAA
TAFOMA
TAF AMD
KOMA 011353Z 0114/0212 35024G33KT 3/4SM -SN BLSN OVC008
     FM011900 34022G31KT 2SM -SN BLSN OVC012
     FM012300 34015G25KT 5SM -SN BLSN OVC020
     FM020300 34015KT P6SM OVC025
     FM020700 33008KT P6SM SCT120=


420
FTUS43 KOAX 011353 AAA
TAFOMA
TAF AMD
KOMA 011353Z 0114/0212 35024G33KT 3/4SM -SN BLSN OVC008
     FM011900 34022G31KT 2SM -SN BLSN OVC012
     FM012300 34015G25KT 5SM -SN BLSN OVC020
     FM020300 34015KT P6SM OVC025
     FM020700 33008KT P6SM SCT120=




U.S. Dept. of Commerce
NOAA National Weather Service
1325 East West Highway
Silver Spring, MD 20910
E-mail: w-nws.webmaster@noaa.gov
Page last modified: May 16, 2007
NATIONAL WEATHER SERVICE: for Safety, for Work, for Fun - FOR LIFE